sensor_id;sensor_type;location;lat;lon;timestamp;temperature;humidity
44509;DHT22;30214;52.246;14.408;2022-11-20T00:02:22;-0.80;99.90
44509;DHT22;30214;52.246;14.408;2022-11-20T00:04:51;-0.80;99.90
44509;DHT22;30214;52.246;14.408;2022-11-20T00:07:19;-0.80;99.90
44509;DHT22;30214;52.246;14.408;2022-11-20T00:09:46;-0.70;99.90
44509;DHT22;30214;52.246;14.408;2022-11-20T00:12:14;-0.70;99.90
44509;DHT22;30214;52.246;14.408;2022-11-20T00:14:41;-0.70;99.90
44509;DHT22;30214;52.246;14.408;2022-11-20T00:17:09;-0.70;99.90
44509;DHT22;30214;52.246;14.408;2022-11-20T00:19:36;-0.60;99.90
44509;DHT22;30214;52.246;14.408;2022-11-20T00:22:03;-0.70;99.90
44509;DHT22;30214;52.246;14.408;2022-11-20T00:24:30;-0.70;99.90
44509;DHT22;30214;52.246;14.408;2022-11-20T00:26:57;-0.70;99.90
44509;DHT22;30214;52.246;14.408;2022-11-20T00:29:26;-0.70;99.90
44509;DHT22;30214;52.246;14.408;2022-11-20T00:31:53;-0.70;99.90
44509;DHT22;30214;52.246;14.408;2022-11-20T00:34:20;-0.80;99.90
44509;DHT22;30214;52.246;14.408;2022-11-20T00:36:47;-0.80;99.90
44509;DHT22;30214;52.246;14.408;2022-11-20T00:39:15;-0.80;99.90
44509;DHT22;30214;52.246;14.408;2022-11-20T00:41:42;-0.80;99.90
44509;DHT22;30214;52.246;14.408;2022-11-20T00:44:10;-0.80;99.90
44509;DHT22;30214;52.246;14.408;2022-11-20T00:46:38;-0.90;99.90
44509;DHT22;30214;52.246;14.408;2022-11-20T00:49:05;-0.90;99.90
44509;DHT22;30214;52.246;14.408;2022-11-20T00:51:33;-0.80;99.90
44509;DHT22;30214;52.246;14.408;2022-11-20T00:54:00;-0.90;99.90
44509;DHT22;30214;52.246;14.408;2022-11-20T00:56:28;-0.80;99.90
44509;DHT22;30214;52.246;14.408;2022-11-20T00:58:55;-0.80;99.90
44509;DHT22;30214;52.246;14.408;2022-11-20T01:01:24;-0.80;99.90
44509;DHT22;30214;52.246;14.408;2022-11-20T01:03:57;-0.90;99.90
44509;DHT22;30214;52.246;14.408;2022-11-20T01:06:26;-0.90;99.90
44509;DHT22;30214;52.246;14.408;2022-11-20T01:08:56;-0.90;99.90
44509;DHT22;30214;52.246;14.408;2022-11-20T01:11:25;-0.90;99.90
44509;DHT22;30214;52.246;14.408;2022-11-20T01:13:55;-0.80;99.90
44509;DHT22;30214;52.246;14.408;2022-11-20T01:16:26;-0.90;99.90
44509;DHT22;30214;52.246;14.408;2022-11-20T01:18:57;-0.80;99.90
44509;DHT22;30214;52.246;14.408;2022-11-20T01:21:28;-0.80;99.90
44509;DHT22;30214;52.246;14.408;2022-11-20T01:23:57;-0.80;99.90
44509;DHT22;30214;52.246;14.408;2022-11-20T01:26:28;-0.80;99.90
44509;DHT22;30214;52.246;14.408;2022-11-20T01:28:56;-0.80;99.90
44509;DHT22;30214;52.246;14.408;2022-11-20T01:31:26;-0.90;99.90
44509;DHT22;30214;52.246;14.408;2022-11-20T01:33:58;-0.80;99.90
44509;DHT22;30214;52.246;14.408;2022-11-20T01:36:28;-0.80;99.90
44509;DHT22;30214;52.246;14.408;2022-11-20T01:38:57;-0.80;99.90
44509;DHT22;30214;52.246;14.408;2022-11-20T01:41:28;-0.80;99.90
44509;DHT22;30214;52.246;14.408;2022-11-20T01:44:17;-0.90;99.90
44509;DHT22;30214;52.246;14.408;2022-11-20T01:46:54;-0.90;99.90
44509;DHT22;30214;52.246;14.408;2022-11-20T01:49:36;-0.90;99.90
44509;DHT22;30214;52.246;14.408;2022-11-20T01:52:11;-1.00;99.90
44509;DHT22;30214;52.246;14.408;2022-11-20T01:54:45;-1.00;99.90
44509;DHT22;30214;52.246;14.408;2022-11-20T01:57:15;-1.00;99.90
44509;DHT22;30214;52.246;14.408;2022-11-20T01:59:47;-1.10;99.90
44509;DHT22;30214;52.246;14.408;2022-11-20T02:02:18;-1.10;99.90
44509;DHT22;30214;52.246;14.408;2022-11-20T02:04:48;-1.10;99.90
44509;DHT22;30214;52.246;14.408;2022-11-20T02:07:16;-1.00;99.90
44509;DHT22;30214;52.246;14.408;2022-11-20T02:09:44;-1.10;99.90
44509;DHT22;30214;52.246;14.408;2022-11-20T02:12:11;-1.00;99.90
44509;DHT22;30214;52.246;14.408;2022-11-20T02:14:58;-1.00;99.90
44509;DHT22;30214;52.246;14.408;2022-11-20T02:17:25;-1.00;99.90
44509;DHT22;30214;52.246;14.408;2022-11-20T02:19:54;-1.00;99.90
44509;DHT22;30214;52.246;14.408;2022-11-20T02:22:27;-1.00;99.90
44509;DHT22;30214;52.246;14.408;2022-11-20T02:24:59;-1.00;99.90
44509;DHT22;30214;52.246;14.408;2022-11-20T02:27:27;-1.00;99.90
44509;DHT22;30214;52.246;14.408;2022-11-20T02:29:59;-1.10;99.90
44509;DHT22;30214;52.246;14.408;2022-11-20T02:32:29;-1.00;99.90
44509;DHT22;30214;52.246;14.408;2022-11-20T02:35:05;-1.00;99.90
44509;DHT22;30214;52.246;14.408;2022-11-20T02:37:37;-1.00;99.90
44509;DHT22;30214;52.246;14.408;2022-11-20T02:40:09;-1.10;99.90
44509;DHT22;30214;52.246;14.408;2022-11-20T02:42:37;-1.00;99.90
44509;DHT22;30214;52.246;14.408;2022-11-20T02:45:05;-1.00;99.90
44509;DHT22;30214;52.246;14.408;2022-11-20T02:47:33;-1.10;99.90
44509;DHT22;30214;52.246;14.408;2022-11-20T02:50:00;-1.00;99.90
44509;DHT22;30214;52.246;14.408;2022-11-20T02:52:27;-1.00;99.90
44509;DHT22;30214;52.246;14.408;2022-11-20T02:54:55;-1.00;99.90
44509;DHT22;30214;52.246;14.408;2022-11-20T02:57:23;-1.00;99.90
44509;DHT22;30214;52.246;14.408;2022-11-20T02:59:50;-1.00;99.90
44509;DHT22;30214;52.246;14.408;2022-11-20T03:02:18;-1.00;99.90
44509;DHT22;30214;52.246;14.408;2022-11-20T03:04:45;-0.90;99.90
44509;DHT22;30214;52.246;14.408;2022-11-20T03:07:12;-0.90;99.90
44509;DHT22;30214;52.246;14.408;2022-11-20T03:09:39;-1.00;99.90
44509;DHT22;30214;52.246;14.408;2022-11-20T03:12:06;-1.00;99.90
44509;DHT22;30214;52.246;14.408;2022-11-20T03:14:35;-1.00;99.90
44509;DHT22;30214;52.246;14.408;2022-11-20T03:17:02;-1.00;99.90
44509;DHT22;30214;52.246;14.408;2022-11-20T03:19:29;-1.10;99.90
44509;DHT22;30214;52.246;14.408;2022-11-20T03:21:56;-1.00;99.90
44509;DHT22;30214;52.246;14.408;2022-11-20T03:24:23;-1.00;99.90
44509;DHT22;30214;52.246;14.408;2022-11-20T03:26:50;-1.00;99.90
44509;DHT22;30214;52.246;14.408;2022-11-20T03:29:17;-0.90;99.90
44509;DHT22;30214;52.246;14.408;2022-11-20T03:31:46;-0.90;99.90
44509;DHT22;30214;52.246;14.408;2022-11-20T03:34:13;-0.90;99.90
44509;DHT22;30214;52.246;14.408;2022-11-20T03:36:41;-0.90;99.90
44509;DHT22;30214;52.246;14.408;2022-11-20T03:39:09;-0.90;99.90
44509;DHT22;30214;52.246;14.408;2022-11-20T03:41:38;-0.90;99.90
44509;DHT22;30214;52.246;14.408;2022-11-20T03:44:09;-1.00;99.90
44509;DHT22;30214;52.246;14.408;2022-11-20T03:46:37;-1.10;99.90
44509;DHT22;30214;52.246;14.408;2022-11-20T03:49:06;-1.00;99.90
44509;DHT22;30214;52.246;14.408;2022-11-20T03:51:34;-1.00;99.90
44509;DHT22;30214;52.246;14.408;2022-11-20T03:54:04;-1.00;99.90
44509;DHT22;30214;52.246;14.408;2022-11-20T03:56:37;-1.00;99.90
44509;DHT22;30214;52.246;14.408;2022-11-20T03:59:05;-0.90;99.90
44509;DHT22;30214;52.246;14.408;2022-11-20T04:01:35;-0.90;99.90
44509;DHT22;30214;52.246;14.408;2022-11-20T04:04:03;-1.00;99.90
44509;DHT22;30214;52.246;14.408;2022-11-20T04:06:34;-0.90;99.90
44509;DHT22;30214;52.246;14.408;2022-11-20T04:09:04;-1.00;99.90
44509;DHT22;30214;52.246;14.408;2022-11-20T04:11:33;-1.00;99.90
44509;DHT22;30214;52.246;14.408;2022-11-20T04:14:03;-1.00;99.90
44509;DHT22;30214;52.246;14.408;2022-11-20T04:16:33;-1.10;99.90
44509;DHT22;30214;52.246;14.408;2022-11-20T04:19:03;-1.10;99.90
44509;DHT22;30214;52.246;14.408;2022-11-20T04:21:33;-1.10;99.90
44509;DHT22;30214;52.246;14.408;2022-11-20T04:24:00;-1.20;99.90
44509;DHT22;30214;52.246;14.408;2022-11-20T04:26:28;-1.20;99.90
44509;DHT22;30214;52.246;14.408;2022-11-20T04:29:00;-1.20;99.90
44509;DHT22;30214;52.246;14.408;2022-11-20T04:31:29;-1.20;99.90
44509;DHT22;30214;52.246;14.408;2022-11-20T04:33:59;-1.10;99.90
44509;DHT22;30214;52.246;14.408;2022-11-20T04:36:28;-1.10;99.90
44509;DHT22;30214;52.246;14.408;2022-11-20T04:38:58;-1.10;99.90
44509;DHT22;30214;52.246;14.408;2022-11-20T04:41:28;-1.10;99.90
44509;DHT22;30214;52.246;14.408;2022-11-20T04:43:59;-1.10;99.90
44509;DHT22;30214;52.246;14.408;2022-11-20T04:46:29;-1.00;99.90
44509;DHT22;30214;52.246;14.408;2022-11-20T04:48:58;-1.00;99.90
44509;DHT22;30214;52.246;14.408;2022-11-20T04:51:25;-1.10;99.90
44509;DHT22;30214;52.246;14.408;2022-11-20T04:53:53;-1.10;99.90
44509;DHT22;30214;52.246;14.408;2022-11-20T04:56:22;-1.10;99.90
44509;DHT22;30214;52.246;14.408;2022-11-20T04:58:49;-1.10;99.90
44509;DHT22;30214;52.246;14.408;2022-11-20T05:01:18;-1.00;99.90
44509;DHT22;30214;52.246;14.408;2022-11-20T05:03:46;-1.10;99.90
44509;DHT22;30214;52.246;14.408;2022-11-20T05:06:17;-1.10;99.90
44509;DHT22;30214;52.246;14.408;2022-11-20T05:08:44;-1.10;99.90
44509;DHT22;30214;52.246;14.408;2022-11-20T05:11:13;-1.00;99.90
44509;DHT22;30214;52.246;14.408;2022-11-20T05:13:42;-1.10;99.90
44509;DHT22;30214;52.246;14.408;2022-11-20T05:16:10;-1.10;99.90
44509;DHT22;30214;52.246;14.408;2022-11-20T05:18:39;-1.10;99.90
44509;DHT22;30214;52.246;14.408;2022-11-20T05:21:09;-1.10;99.90
44509;DHT22;30214;52.246;14.408;2022-11-20T05:23:36;-1.10;99.90
44509;DHT22;30214;52.246;14.408;2022-11-20T05:26:04;-1.10;99.90
44509;DHT22;30214;52.246;14.408;2022-11-20T05:28:33;-1.10;99.90
44509;DHT22;30214;52.246;14.408;2022-11-20T05:31:05;-1.20;99.90
44509;DHT22;30214;52.246;14.408;2022-11-20T05:33:33;-1.20;99.90
44509;DHT22;30214;52.246;14.408;2022-11-20T05:36:01;-1.30;99.90
44509;DHT22;30214;52.246;14.408;2022-11-20T05:38:28;-1.20;99.90
44509;DHT22;30214;52.246;14.408;2022-11-20T05:41:03;-1.20;99.90
44509;DHT22;30214;52.246;14.408;2022-11-20T05:43:32;-1.10;99.90
44509;DHT22;30214;52.246;14.408;2022-11-20T05:46:00;-1.10;99.90
44509;DHT22;30214;52.246;14.408;2022-11-20T05:48:29;-1.10;99.90
44509;DHT22;30214;52.246;14.408;2022-11-20T05:50:58;-1.10;99.90
44509;DHT22;30214;52.246;14.408;2022-11-20T05:53:26;-1.10;99.90
44509;DHT22;30214;52.246;14.408;2022-11-20T05:55:58;-1.10;99.90
44509;DHT22;30214;52.246;14.408;2022-11-20T05:58:25;-1.10;99.90
44509;DHT22;30214;52.246;14.408;2022-11-20T06:00:53;-1.10;99.90
44509;DHT22;30214;52.246;14.408;2022-11-20T06:03:20;-1.10;99.90
44509;DHT22;30214;52.246;14.408;2022-11-20T06:05:49;-1.10;99.90
44509;DHT22;30214;52.246;14.408;2022-11-20T06:08:16;-1.10;99.90
44509;DHT22;30214;52.246;14.408;2022-11-20T06:10:43;-1.20;99.90
44509;DHT22;30214;52.246;14.408;2022-11-20T06:13:10;-1.20;99.90
44509;DHT22;30214;52.246;14.408;2022-11-20T06:15:37;-1.30;99.90
44509;DHT22;30214;52.246;14.408;2022-11-20T06:18:05;-1.30;99.90
44509;DHT22;30214;52.246;14.408;2022-11-20T06:20:32;-1.30;99.90
44509;DHT22;30214;52.246;14.408;2022-11-20T06:23:01;-1.30;99.90
44509;DHT22;30214;52.246;14.408;2022-11-20T06:25:28;-1.30;99.90
44509;DHT22;30214;52.246;14.408;2022-11-20T06:27:55;-1.30;99.90
44509;DHT22;30214;52.246;14.408;2022-11-20T06:30:22;-1.30;99.90
44509;DHT22;30214;52.246;14.408;2022-11-20T06:32:49;-1.30;99.90
44509;DHT22;30214;52.246;14.408;2022-11-20T06:35:16;-1.30;99.90
44509;DHT22;30214;52.246;14.408;2022-11-20T06:37:43;-1.40;99.90
44509;DHT22;30214;52.246;14.408;2022-11-20T06:40:13;-1.40;99.90
44509;DHT22;30214;52.246;14.408;2022-11-20T06:42:40;-1.40;99.90
44509;DHT22;30214;52.246;14.408;2022-11-20T06:45:08;-1.30;99.90
44509;DHT22;30214;52.246;14.408;2022-11-20T06:47:36;-1.40;99.90
44509;DHT22;30214;52.246;14.408;2022-11-20T06:50:03;-1.50;99.90
44509;DHT22;30214;52.246;14.408;2022-11-20T06:52:31;-1.40;99.90
44509;DHT22;30214;52.246;14.408;2022-11-20T06:54:58;-1.30;99.90
44509;DHT22;30214;52.246;14.408;2022-11-20T06:57:27;-1.40;99.90
44509;DHT22;30214;52.246;14.408;2022-11-20T06:59:54;-1.40;99.90
44509;DHT22;30214;52.246;14.408;2022-11-20T07:02:22;-1.30;99.90
44509;DHT22;30214;52.246;14.408;2022-11-20T07:04:50;-1.30;99.90
44509;DHT22;30214;52.246;14.408;2022-11-20T07:07:18;-1.40;99.90
44509;DHT22;30214;52.246;14.408;2022-11-20T07:09:45;-1.50;99.90
44509;DHT22;30214;52.246;14.408;2022-11-20T07:12:12;-1.40;99.90
44509;DHT22;30214;52.246;14.408;2022-11-20T07:14:40;-1.40;99.90
44509;DHT22;30214;52.246;14.408;2022-11-20T07:17:08;-1.40;99.90
44509;DHT22;30214;52.246;14.408;2022-11-20T07:19:35;-1.40;99.90
44509;DHT22;30214;52.246;14.408;2022-11-20T07:22:02;-1.50;99.90
44509;DHT22;30214;52.246;14.408;2022-11-20T07:24:29;-1.50;99.90
44509;DHT22;30214;52.246;14.408;2022-11-20T07:26:56;-1.50;99.90
44509;DHT22;30214;52.246;14.408;2022-11-20T07:29:23;-1.50;99.90
44509;DHT22;30214;52.246;14.408;2022-11-20T07:31:51;-1.50;99.90
44509;DHT22;30214;52.246;14.408;2022-11-20T07:34:18;-1.40;99.90
44509;DHT22;30214;52.246;14.408;2022-11-20T07:36:46;-1.40;99.90
44509;DHT22;30214;52.246;14.408;2022-11-20T07:39:13;-1.30;99.90
44509;DHT22;30214;52.246;14.408;2022-11-20T07:41:40;-1.30;99.90
44509;DHT22;30214;52.246;14.408;2022-11-20T07:44:07;-1.30;99.90
44509;DHT22;30214;52.246;14.408;2022-11-20T07:46:34;-1.30;99.90
44509;DHT22;30214;52.246;14.408;2022-11-20T07:49:03;-1.30;99.90
44509;DHT22;30214;52.246;14.408;2022-11-20T07:51:30;-1.30;99.90
44509;DHT22;30214;52.246;14.408;2022-11-20T07:53:57;-1.30;99.90
44509;DHT22;30214;52.246;14.408;2022-11-20T07:56:24;-1.30;99.90
44509;DHT22;30214;52.246;14.408;2022-11-20T07:58:51;-1.30;99.90
44509;DHT22;30214;52.246;14.408;2022-11-20T08:01:18;-1.30;99.90
44509;DHT22;30214;52.246;14.408;2022-11-20T08:03:45;-1.30;99.90
44509;DHT22;30214;52.246;14.408;2022-11-20T08:06:13;-1.30;99.90
44509;DHT22;30214;52.246;14.408;2022-11-20T08:08:41;-1.30;99.90
44509;DHT22;30214;52.246;14.408;2022-11-20T08:11:08;-1.40;99.90
44509;DHT22;30214;52.246;14.408;2022-11-20T08:13:53;-1.40;99.90
44509;DHT22;30214;52.246;14.408;2022-11-20T08:19:28;-1.40;99.90
44509;DHT22;30214;52.246;14.408;2022-11-20T08:21:57;-1.40;99.90
44509;DHT22;30214;52.246;14.408;2022-11-20T08:24:24;-1.40;99.90
44509;DHT22;30214;52.246;14.408;2022-11-20T08:26:53;-1.30;99.90
44509;DHT22;30214;52.246;14.408;2022-11-20T08:29:20;-1.40;99.90
44509;DHT22;30214;52.246;14.408;2022-11-20T08:31:48;-1.40;99.90
44509;DHT22;30214;52.246;14.408;2022-11-20T08:34:25;-1.30;99.90
44509;DHT22;30214;52.246;14.408;2022-11-20T08:36:59;-1.40;99.90
44509;DHT22;30214;52.246;14.408;2022-11-20T08:39:28;-1.30;99.90
44509;DHT22;30214;52.246;14.408;2022-11-20T08:41:55;-1.40;99.90
44509;DHT22;30214;52.246;14.408;2022-11-20T08:44:23;-1.40;99.90
44509;DHT22;30214;52.246;14.408;2022-11-20T08:46:51;-1.30;99.90
44509;DHT22;30214;52.246;14.408;2022-11-20T08:49:20;-1.30;99.90
44509;DHT22;30214;52.246;14.408;2022-11-20T08:51:57;-1.30;99.90
44509;DHT22;30214;52.246;14.408;2022-11-20T08:54:26;-1.30;99.90
44509;DHT22;30214;52.246;14.408;2022-11-20T08:56:53;-1.30;99.90
44509;DHT22;30214;52.246;14.408;2022-11-20T08:59:21;-1.30;99.90
44509;DHT22;30214;52.246;14.408;2022-11-20T09:01:48;-1.20;99.90
44509;DHT22;30214;52.246;14.408;2022-11-20T09:04:17;-1.20;99.90
44509;DHT22;30214;52.246;14.408;2022-11-20T09:06:45;-1.10;99.90
44509;DHT22;30214;52.246;14.408;2022-11-20T09:09:17;-1.00;99.90
44509;DHT22;30214;52.246;14.408;2022-11-20T09:11:45;-1.00;99.90
44509;DHT22;30214;52.246;14.408;2022-11-20T09:14:12;-0.90;99.90
44509;DHT22;30214;52.246;14.408;2022-11-20T09:16:39;-1.00;99.90
44509;DHT22;30214;52.246;14.408;2022-11-20T09:19:06;-0.90;99.90
44509;DHT22;30214;52.246;14.408;2022-11-20T09:21:33;-0.90;99.90
44509;DHT22;30214;52.246;14.408;2022-11-20T09:24:01;-0.90;99.90
44509;DHT22;30214;52.246;14.408;2022-11-20T09:26:32;-0.90;99.90
44509;DHT22;30214;52.246;14.408;2022-11-20T09:28:59;-0.80;99.90
44509;DHT22;30214;52.246;14.408;2022-11-20T09:35:04;-0.90;99.90
44509;DHT22;30214;52.246;14.408;2022-11-20T09:37:42;-0.90;99.90
44509;DHT22;30214;52.246;14.408;2022-11-20T09:40:58;-0.90;99.90
44509;DHT22;30214;52.246;14.408;2022-11-20T09:43:43;-0.90;99.90
44509;DHT22;30214;52.246;14.408;2022-11-20T09:46:29;-0.90;99.90
44509;DHT22;30214;52.246;14.408;2022-11-20T09:49:19;-0.90;99.90
44509;DHT22;30214;52.246;14.408;2022-11-20T09:51:57;-0.80;99.90
44509;DHT22;30214;52.246;14.408;2022-11-20T09:54:29;-0.80;99.90
44509;DHT22;30214;52.246;14.408;2022-11-20T09:56:59;-0.70;99.90
44509;DHT22;30214;52.246;14.408;2022-11-20T09:59:45;-0.70;99.90
44509;DHT22;30214;52.246;14.408;2022-11-20T10:02:27;-0.70;99.90
44509;DHT22;30214;52.246;14.408;2022-11-20T10:05:06;-0.60;99.90
44509;DHT22;30214;52.246;14.408;2022-11-20T10:07:44;-0.50;99.90
44509;DHT22;30214;52.246;14.408;2022-11-20T10:10:29;-0.40;99.90
44509;DHT22;30214;52.246;14.408;2022-11-20T10:13:11;0.10;99.90
44509;DHT22;30214;52.246;14.408;2022-11-20T10:15:54;0.30;99.90
44509;DHT22;30214;52.246;14.408;2022-11-20T10:18:42;0.20;99.90
44509;DHT22;30214;52.246;14.408;2022-11-20T10:21:23;0.00;99.90
44509;DHT22;30214;52.246;14.408;2022-11-20T10:27:14;-0.20;99.90
44509;DHT22;30214;52.246;14.408;2022-11-20T10:29:59;-0.20;99.90
44509;DHT22;30214;52.246;14.408;2022-11-20T10:32:36;-0.20;99.90
44509;DHT22;30214;52.246;14.408;2022-11-20T10:35:09;-0.30;99.90
44509;DHT22;30214;52.246;14.408;2022-11-20T10:37:45;-0.30;99.90
44509;DHT22;30214;52.246;14.408;2022-11-20T10:40:30;-0.30;99.90
44509;DHT22;30214;52.246;14.408;2022-11-20T10:43:03;-0.30;99.90
44509;DHT22;30214;52.246;14.408;2022-11-20T10:45:45;-0.40;99.90
44509;DHT22;30214;52.246;14.408;2022-11-20T10:48:21;0.30;99.90
44509;DHT22;30214;52.246;14.408;2022-11-20T10:51:07;0.50;99.90
44509;DHT22;30214;52.246;14.408;2022-11-20T10:53:48;0.30;99.90
44509;DHT22;30214;52.246;14.408;2022-11-20T10:56:25;0.20;99.90
44509;DHT22;30214;52.246;14.408;2022-11-20T10:59:07;0.10;99.90
44509;DHT22;30214;52.246;14.408;2022-11-20T11:01:41;0.10;99.90
44509;DHT22;30214;52.246;14.408;2022-11-20T11:07:06;0.10;99.90
44509;DHT22;30214;52.246;14.408;2022-11-20T11:09:41;0.10;99.90
44509;DHT22;30214;52.246;14.408;2022-11-20T11:14:45;0.00;99.90
44509;DHT22;30214;52.246;14.408;2022-11-20T11:17:21;0.00;99.90
44509;DHT22;30214;52.246;14.408;2022-11-20T11:25:35;-0.10;99.90
44509;DHT22;30214;52.246;14.408;2022-11-20T11:28:17;-0.10;99.90
44509;DHT22;30214;52.246;14.408;2022-11-20T11:30:46;-0.20;99.90
44509;DHT22;30214;52.246;14.408;2022-11-20T11:33:20;-0.20;99.90
44509;DHT22;30214;52.246;14.408;2022-11-20T11:35:50;-0.20;99.90
44509;DHT22;30214;52.246;14.408;2022-11-20T11:38:21;-0.20;99.90
44509;DHT22;30214;52.246;14.408;2022-11-20T11:40:57;-0.10;99.90
44509;DHT22;30214;52.246;14.408;2022-11-20T12:11:14;0.60;99.90
44509;DHT22;30214;52.246;14.408;2022-11-20T12:13:51;0.50;99.90
44509;DHT22;30214;52.246;14.408;2022-11-20T12:16:20;0.40;99.90
44509;DHT22;30214;52.246;14.408;2022-11-20T18:28:26;0.10;99.90
44509;DHT22;30214;52.246;14.408;2022-11-20T18:31:47;0.40;99.90
44509;DHT22;30214;52.246;14.408;2022-11-20T18:35:09;0.50;99.90
44509;DHT22;30214;52.246;14.408;2022-11-20T19:51:25;-0.60;99.90
44509;DHT22;30214;52.246;14.408;2022-11-20T20:04:35;-0.70;99.90
44509;DHT22;30214;52.246;14.408;2022-11-20T20:09:45;-0.90;99.90
44509;DHT22;30214;52.246;14.408;2022-11-20T20:28:38;-1.00;99.90
